createdAt,value
2023-01-05T00:01:09.872Z,11.46
2023-01-05T00:03:37.452Z,11.42
2023-01-05T00:06:08.056Z,11.43
2023-01-05T00:08:37.408Z,11.41
2023-01-05T00:11:30.603Z,11.38
2023-01-05T00:14:15.879Z,11.37
2023-01-05T00:17:00.869Z,11.36
2023-01-05T00:19:48.522Z,11.35
2023-01-05T00:22:34.997Z,11.35
2023-01-05T00:25:13.456Z,11.34
2023-01-05T00:27:42.066Z,11.36
2023-01-05T00:30:10.505Z,11.39
2023-01-05T00:32:37.093Z,11.40
2023-01-05T00:35:04.117Z,11.39
2023-01-05T00:37:32.969Z,11.37
2023-01-05T00:39:59.481Z,11.37
2023-01-05T00:42:26.154Z,11.37
2023-01-05T00:44:52.699Z,11.35
2023-01-05T00:47:19.189Z,11.40
2023-01-05T00:49:45.764Z,11.38
2023-01-05T00:52:12.238Z,11.36
2023-01-05T00:54:38.720Z,11.40
2023-01-05T00:57:07.197Z,11.36
2023-01-05T00:59:33.939Z,11.33
2023-01-05T01:02:00.649Z,11.34
2023-01-05T01:04:27.495Z,11.34
2023-01-05T01:06:54.756Z,11.35
2023-01-05T01:09:21.733Z,11.32
2023-01-05T01:11:48.575Z,11.28
2023-01-05T01:14:16.019Z,11.28
2023-01-05T01:16:42.936Z,11.28
2023-01-05T01:19:17.288Z,11.29
2023-01-05T01:21:44.013Z,11.24
2023-01-05T01:24:17.129Z,11.24
2023-01-05T01:26:43.815Z,11.23
2023-01-05T01:29:10.917Z,11.23
2023-01-05T01:31:37.619Z,11.20
2023-01-05T01:34:04.580Z,11.22
2023-01-05T01:36:31.403Z,11.19
2023-01-05T01:38:57.914Z,11.20
2023-01-05T01:41:24.405Z,11.16
2023-01-05T01:43:53.616Z,11.14
2023-01-05T01:46:21.465Z,11.15
2023-01-05T01:48:56.756Z,11.18
2023-01-05T01:51:44.798Z,11.13
2023-01-05T01:54:15.706Z,11.16
2023-01-05T01:56:47.546Z,11.12
2023-01-05T01:59:14.605Z,11.13
2023-01-05T02:01:41.164Z,11.15
2023-01-05T02:04:10.215Z,11.12
2023-01-05T02:06:37.476Z,11.18
2023-01-05T02:09:05.874Z,11.14
2023-01-05T02:11:58.780Z,11.11
2023-01-05T02:14:45.515Z,11.11
2023-01-05T02:17:18.030Z,11.11
2023-01-05T02:19:59.865Z,11.07
2023-01-05T02:22:37.140Z,11.06
2023-01-05T02:25:25.358Z,11.05
2023-01-05T02:28:16.073Z,11.03
2023-01-05T02:31:03.556Z,11.04
2023-01-05T02:33:54.967Z,11.03
2023-01-05T02:36:30.290Z,11.00
2023-01-05T02:39:06.326Z,10.99
2023-01-05T02:41:39.332Z,10.97
2023-01-05T02:44:08.259Z,10.96
2023-01-05T02:46:34.829Z,10.96
2023-01-05T02:49:04.006Z,10.98
2023-01-05T02:51:37.215Z,11.00
2023-01-05T02:54:09.212Z,10.97
2023-01-05T02:56:40.652Z,10.95
2023-01-05T02:59:20.087Z,10.96
2023-01-05T03:01:51.586Z,10.98
2023-01-05T03:04:25.442Z,11.00
2023-01-05T03:07:02.256Z,11.01
2023-01-05T03:09:36.659Z,10.96
2023-01-05T03:12:44.169Z,10.95
2023-01-05T03:15:21.027Z,10.90
2023-01-05T03:17:51.681Z,10.92
2023-01-05T03:20:23.550Z,10.88
2023-01-05T03:23:12.580Z,10.88
2023-01-05T03:25:59.016Z,10.89
2023-01-05T03:28:56.575Z,10.86
2023-01-05T03:31:49.916Z,10.88
2023-01-05T03:34:48.511Z,10.88
2023-01-05T03:37:19.932Z,10.84
2023-01-05T03:39:47.582Z,10.85
2023-01-05T03:42:15.972Z,10.84
2023-01-05T03:44:45.832Z,10.84
2023-01-05T03:47:14.091Z,10.85
2023-01-05T03:49:40.592Z,10.84
2023-01-05T03:52:07.106Z,10.83
2023-01-05T03:54:33.617Z,10.85
2023-01-05T03:57:00.131Z,10.85
2023-01-05T03:59:26.618Z,10.84
2023-01-05T04:01:53.249Z,10.88
2023-01-05T04:04:19.913Z,10.87
2023-01-05T04:06:47.011Z,10.87
2023-01-05T04:09:13.478Z,10.88
2023-01-05T04:11:40.002Z,10.86
2023-01-05T04:14:06.635Z,10.84
2023-01-05T04:16:33.322Z,10.83
2023-01-05T04:18:59.933Z,10.85
2023-01-05T04:21:26.413Z,10.82
2023-01-05T04:23:52.895Z,10.78
2023-01-05T04:26:19.521Z,10.76
2023-01-05T04:28:46.022Z,10.75
2023-01-05T04:31:12.753Z,10.74
2023-01-05T04:33:40.303Z,10.71
2023-01-05T04:36:08.292Z,10.71
2023-01-05T04:38:34.757Z,10.67
2023-01-05T04:41:01.482Z,10.70
2023-01-05T04:43:28.005Z,10.68
2023-01-05T04:45:54.592Z,10.67
2023-01-05T04:48:21.237Z,10.66
2023-01-05T04:50:54.211Z,10.64
2023-01-05T04:53:20.750Z,10.63
2023-01-05T04:55:47.240Z,10.59
2023-01-05T04:58:13.720Z,10.64
2023-01-05T05:00:40.260Z,10.65
2023-01-05T05:03:07.405Z,10.62
2023-01-05T05:05:34.528Z,10.63
2023-01-05T05:08:01.339Z,10.62
2023-01-05T05:10:27.886Z,10.62
2023-01-05T05:12:54.468Z,10.57
2023-01-05T05:15:20.961Z,10.56
2023-01-05T05:17:48.404Z,10.55
2023-01-05T05:20:15.231Z,10.54
2023-01-05T05:22:41.768Z,10.50
2023-01-05T05:25:08.873Z,10.46
2023-01-05T05:27:35.846Z,10.42
2023-01-05T05:30:02.455Z,10.46
2023-01-05T05:32:29.217Z,10.45
2023-01-05T05:34:55.731Z,10.46
2023-01-05T05:37:22.264Z,10.43
2023-01-05T05:39:48.792Z,10.45
2023-01-05T05:42:15.340Z,10.48
2023-01-05T05:44:41.814Z,10.44
2023-01-05T05:47:08.366Z,10.46
2023-01-05T05:49:34.869Z,10.47
2023-01-05T05:52:01.357Z,10.46
2023-01-05T05:54:27.909Z,10.43
2023-01-05T05:56:54.429Z,10.44
2023-01-05T05:59:20.966Z,10.40
2023-01-05T06:01:47.618Z,10.40
2023-01-05T06:04:14.316Z,10.38
2023-01-05T06:06:40.845Z,10.40
2023-01-05T06:09:07.352Z,10.43
2023-01-05T06:11:34.014Z,10.40
2023-01-05T06:14:00.716Z,10.41
2023-01-05T06:16:27.215Z,10.43
2023-01-05T06:18:53.759Z,10.42
2023-01-05T06:21:22.158Z,10.40
2023-01-05T06:23:48.715Z,10.31
2023-01-05T06:26:15.300Z,10.34
2023-01-05T06:28:42.389Z,10.31
2023-01-05T06:31:08.944Z,10.30
2023-01-05T06:33:35.503Z,10.28
2023-01-05T06:36:02.299Z,10.27
2023-01-05T06:38:29.442Z,10.27
2023-01-05T06:40:56.120Z,10.25
2023-01-05T06:43:22.647Z,10.26
2023-01-05T06:45:49.296Z,10.24
2023-01-05T06:48:15.833Z,10.25
2023-01-05T06:50:42.313Z,10.23
2023-01-05T06:53:08.803Z,10.23
2023-01-05T06:55:35.446Z,10.21
2023-01-05T06:58:01.958Z,10.19
2023-01-05T07:00:29.128Z,10.20
2023-01-05T07:02:56.013Z,10.17
2023-01-05T07:05:24.494Z,10.17
2023-01-05T07:07:51.340Z,10.18
2023-01-05T07:10:18.534Z,10.17
2023-01-05T07:12:45.030Z,10.18
2023-01-05T07:15:11.708Z,10.23
2023-01-05T07:17:38.222Z,10.21
2023-01-05T07:20:06.465Z,10.22
2023-01-05T07:22:33.004Z,10.22
2023-01-05T07:25:00.088Z,10.22
2023-01-05T07:27:26.698Z,10.19
2023-01-05T07:29:53.296Z,10.24
2023-01-05T07:32:20.016Z,10.26
2023-01-05T07:34:54.901Z,10.27
2023-01-05T07:37:24.723Z,10.26
2023-01-05T07:39:51.815Z,10.26
2023-01-05T07:42:18.278Z,10.25
2023-01-05T07:44:45.467Z,10.25
2023-01-05T07:47:12.478Z,10.28
2023-01-05T07:49:39.213Z,10.27
2023-01-05T07:52:05.698Z,10.23
2023-01-05T07:54:32.185Z,10.23
2023-01-05T07:56:59.228Z,10.26
2023-01-05T07:59:25.996Z,10.29
2023-01-05T08:01:52.536Z,10.30
2023-01-05T08:04:19.185Z,10.34
2023-01-05T08:06:45.794Z,10.36
2023-01-05T08:09:30.948Z,10.36
2023-01-05T08:11:57.537Z,10.36
2023-01-05T08:14:24.039Z,10.33
2023-01-05T08:16:50.946Z,10.36
2023-01-05T08:19:17.525Z,10.36
2023-01-05T08:21:44.024Z,10.32
2023-01-05T08:24:10.905Z,10.41
2023-01-05T08:26:37.507Z,10.41
2023-01-05T08:29:04.046Z,10.44
2023-01-05T08:31:37.317Z,10.45
2023-01-05T08:34:05.485Z,10.49
2023-01-05T08:36:32.994Z,10.53
2023-01-05T08:39:01.726Z,10.49
2023-01-05T08:41:31.816Z,10.56
2023-01-05T08:44:00.524Z,10.56
2023-01-05T08:46:29.489Z,10.57
2023-01-05T08:48:58.704Z,10.59
2023-01-05T08:51:25.369Z,10.65
2023-01-05T08:53:52.492Z,10.66
2023-01-05T08:56:19.432Z,10.65
2023-01-05T08:58:46.562Z,10.66
2023-01-05T09:01:16.979Z,10.66
2023-01-05T09:03:43.943Z,10.68
2023-01-05T09:06:12.492Z,10.72
2023-01-05T09:08:40.745Z,10.74
2023-01-05T09:11:13.069Z,10.76
2023-01-05T09:13:40.986Z,10.76
2023-01-05T09:16:24.855Z,10.77
2023-01-05T09:19:04.984Z,10.75
2023-01-05T09:21:31.547Z,10.75
2023-01-05T09:23:59.031Z,10.78
2023-01-05T09:26:25.562Z,10.81
2023-01-05T09:28:52.114Z,10.79
2023-01-05T09:31:21.056Z,10.79
2023-01-05T09:33:48.373Z,10.75
2023-01-05T09:36:17.279Z,10.75
2023-01-05T09:38:48.770Z,10.67
2023-01-05T09:41:27.330Z,10.67
2023-01-05T09:44:00.852Z,10.65
2023-01-05T09:46:33.694Z,10.60
2023-01-05T09:49:03.247Z,10.61
2023-01-05T09:51:30.228Z,10.64
2023-01-05T09:54:00.451Z,10.65
2023-01-05T09:59:36.455Z,10.69
2023-01-05T10:02:21.392Z,10.71
2023-01-05T10:04:49.772Z,10.68
2023-01-05T10:07:37.403Z,10.69
2023-01-05T10:10:13.007Z,10.68
2023-01-05T10:13:05.693Z,10.65
2023-01-05T10:15:49.000Z,10.72
2023-01-05T10:18:19.159Z,10.68
2023-01-05T10:20:50.542Z,10.72
2023-01-05T10:23:53.036Z,10.75
2023-01-05T10:26:51.311Z,10.76
2023-01-05T10:29:27.672Z,10.79
2023-01-05T10:31:56.669Z,10.79
2023-01-05T10:34:26.170Z,10.84
2023-01-05T10:37:28.092Z,10.87
2023-01-05T10:40:14.078Z,10.92
2023-01-05T10:43:05.594Z,11.00
2023-01-05T10:45:32.441Z,11.02
2023-01-05T10:47:59.940Z,11.03
2023-01-05T10:50:39.782Z,11.10
2023-01-05T10:53:18.567Z,11.10
2023-01-05T10:55:54.686Z,11.06
2023-01-05T10:58:23.243Z,11.04
2023-01-05T11:00:51.499Z,11.05
2023-01-05T11:03:25.105Z,11.03
2023-01-05T11:06:00.351Z,11.05
2023-01-05T11:08:29.386Z,11.06
2023-01-05T11:10:59.065Z,11.07
2023-01-05T11:13:39.683Z,11.12
2023-01-05T11:16:10.727Z,11.15
2023-01-05T11:18:41.869Z,11.17
2023-01-05T11:21:24.982Z,11.17
2023-01-05T11:23:52.891Z,11.23
2023-01-05T11:26:19.349Z,11.25
2023-01-05T11:29:11.687Z,11.23
2023-01-05T11:31:55.224Z,11.26
2023-01-05T11:34:30.276Z,11.28
2023-01-05T11:37:04.044Z,11.28
2023-01-05T11:39:39.694Z,11.31
2023-01-05T11:42:28.298Z,11.46
2023-01-05T11:45:21.994Z,11.55
2023-01-05T11:47:54.465Z,11.61
2023-01-05T11:50:25.205Z,11.73
2023-01-05T11:53:02.844Z,11.82
2023-01-05T11:55:40.012Z,11.81
2023-01-05T11:58:31.379Z,11.65
2023-01-05T12:01:00.872Z,11.63
2023-01-05T12:03:45.645Z,11.59
2023-01-05T12:06:30.555Z,11.69
2023-01-05T12:09:05.633Z,11.71
2023-01-05T12:11:43.222Z,11.72
2023-01-05T12:14:37.949Z,11.65
2023-01-05T12:17:15.280Z,11.69
2023-01-05T12:20:15.452Z,11.64
2023-01-05T12:22:53.347Z,11.64
2023-01-05T12:25:47.975Z,11.64
2023-01-05T12:28:35.934Z,11.67
2023-01-05T12:34:13.280Z,11.70
2023-01-05T12:36:56.545Z,11.73
2023-01-05T12:39:56.558Z,11.75
2023-01-05T12:42:51.270Z,11.76
2023-01-05T12:45:34.716Z,11.71
2023-01-05T12:48:08.967Z,11.75
2023-01-05T12:51:03.919Z,11.76
2023-01-05T12:53:36.212Z,11.78
2023-01-05T12:56:14.530Z,11.84
2023-01-05T12:58:53.984Z,11.89
2023-01-05T13:01:26.548Z,11.89
2023-01-05T13:04:02.630Z,11.88
2023-01-05T13:06:37.754Z,11.88
2023-01-05T13:09:20.375Z,11.85
2023-01-05T13:12:07.645Z,11.79
2023-01-05T13:14:37.121Z,11.80
2023-01-05T13:17:22.742Z,11.95
2023-01-05T13:19:56.956Z,11.98
2023-01-05T13:22:33.802Z,11.95
2023-01-05T13:25:16.922Z,11.87
2023-01-05T13:27:43.491Z,11.85
2023-01-05T13:30:22.503Z,11.79
2023-01-05T13:32:57.623Z,11.78
2023-01-05T13:36:02.643Z,11.72
2023-01-05T13:38:56.827Z,11.76
2023-01-05T13:41:53.889Z,11.77
2023-01-05T13:44:29.740Z,11.79
2023-01-05T13:47:23.811Z,11.82
2023-01-05T13:50:17.144Z,11.87
2023-01-05T13:53:02.649Z,11.92
2023-01-05T13:55:31.545Z,11.90
2023-01-05T13:57:58.622Z,11.90
2023-01-05T14:00:30.472Z,11.85
2023-01-05T14:02:56.937Z,11.81
2023-01-05T14:05:31.830Z,11.76
2023-01-05T14:08:03.197Z,11.79
2023-01-05T14:10:32.085Z,11.72
2023-01-05T14:12:59.850Z,11.68
2023-01-05T14:15:34.819Z,11.63
2023-01-05T14:18:02.794Z,11.59
2023-01-05T14:20:44.898Z,11.59
2023-01-05T14:23:23.966Z,11.58
2023-01-05T14:25:58.353Z,11.61
2023-01-05T14:28:27.981Z,11.57
2023-01-05T14:31:19.050Z,11.60
2023-01-05T14:33:57.526Z,11.57
2023-01-05T14:36:39.430Z,11.55
2023-01-05T14:39:18.218Z,11.54
2023-01-05T14:41:57.986Z,11.52
2023-01-05T14:44:30.897Z,11.52
2023-01-05T14:46:58.245Z,11.54
2023-01-05T14:49:33.527Z,11.53
2023-01-05T14:52:02.465Z,11.56
2023-01-05T14:55:05.654Z,11.53
2023-01-05T14:57:49.921Z,11.53
2023-01-05T15:00:29.847Z,11.50
2023-01-05T15:03:24.232Z,11.41
2023-01-05T15:05:56.532Z,11.37
2023-01-05T15:09:02.255Z,11.32
2023-01-05T15:11:47.316Z,11.30
2023-01-05T15:14:32.932Z,11.27
2023-01-05T15:18:01.188Z,11.20
2023-01-05T15:20:38.652Z,11.20
2023-01-05T15:23:11.150Z,11.18
2023-01-05T15:26:03.404Z,11.13
2023-01-05T15:29:14.314Z,11.13
2023-01-05T15:31:48.665Z,11.13
2023-01-05T15:34:33.974Z,11.12
2023-01-05T15:37:17.527Z,11.12
2023-01-05T15:39:49.916Z,11.04
2023-01-05T15:42:39.073Z,11.00
2023-01-05T15:45:16.320Z,11.00
2023-01-05T15:47:43.265Z,11.04
2023-01-05T15:50:21.727Z,11.01
2023-01-05T15:52:54.618Z,11.03
2023-01-05T15:55:21.553Z,11.04
2023-01-05T15:57:57.318Z,11.02
2023-01-05T16:00:30.663Z,11.00
2023-01-05T16:02:57.720Z,10.97
2023-01-05T16:05:27.036Z,10.95
2023-01-05T16:08:00.059Z,10.94
2023-01-05T16:10:50.014Z,10.94
2023-01-05T16:13:27.507Z,10.93
2023-01-05T16:15:57.387Z,10.94
2023-01-05T16:18:29.945Z,10.95
2023-01-05T16:20:58.438Z,10.94
2023-01-05T16:23:37.150Z,10.94
2023-01-05T16:26:04.150Z,10.94
2023-01-05T16:28:30.743Z,10.93
2023-01-05T16:30:57.307Z,10.89
2023-01-05T16:33:28.076Z,10.90
2023-01-05T16:36:22.233Z,10.86
2023-01-05T16:38:49.240Z,10.83
2023-01-05T16:41:26.636Z,10.79
2023-01-05T16:43:56.690Z,10.71
2023-01-05T16:46:28.977Z,10.66
2023-01-05T16:48:58.547Z,10.67
2023-01-05T16:51:38.794Z,10.72
2023-01-05T16:54:22.613Z,10.62
2023-01-05T16:56:58.235Z,10.58
2023-01-05T16:59:32.968Z,10.59
2023-01-05T17:01:59.715Z,10.64
2023-01-05T17:04:26.335Z,10.60
2023-01-05T17:06:53.646Z,10.61
2023-01-05T17:09:30.919Z,10.58
2023-01-05T17:11:57.840Z,10.60
2023-01-05T17:14:26.510Z,10.54
2023-01-05T17:16:54.406Z,10.53
2023-01-05T17:19:21.616Z,10.53
2023-01-05T17:21:56.702Z,10.55
2023-01-05T17:24:23.924Z,10.55
2023-01-05T17:26:50.451Z,10.51
2023-01-05T17:29:28.926Z,10.50
2023-01-05T17:31:56.175Z,10.51
2023-01-05T17:34:23.577Z,10.52
2023-01-05T17:36:53.464Z,10.50
2023-01-05T17:39:22.491Z,10.50
2023-01-05T17:41:49.821Z,10.53
2023-01-05T17:44:17.136Z,10.50
2023-01-05T17:46:45.769Z,10.48
2023-01-05T17:49:18.671Z,10.48
2023-01-05T17:51:45.208Z,10.45
2023-01-05T17:54:12.088Z,10.42
2023-01-05T17:56:38.911Z,10.41
2023-01-05T17:59:05.922Z,10.41
2023-01-05T18:01:35.536Z,10.38
2023-01-05T18:04:02.267Z,10.38
2023-01-05T18:06:28.949Z,10.36
2023-01-05T18:08:55.583Z,10.34
2023-01-05T18:11:22.063Z,10.33
2023-01-05T18:13:48.940Z,10.35
2023-01-05T18:16:15.629Z,10.34
2023-01-05T18:18:42.291Z,10.31
2023-01-05T18:21:09.147Z,10.32
2023-01-05T18:23:39.033Z,10.31
2023-01-05T18:26:08.830Z,10.32
2023-01-05T18:28:36.729Z,10.29
2023-01-05T18:31:14.211Z,10.30
2023-01-05T18:33:41.147Z,10.27
2023-01-05T18:36:09.615Z,10.29
2023-01-05T18:38:37.775Z,10.28
2023-01-05T18:41:04.772Z,10.29
2023-01-05T18:43:34.914Z,10.31
2023-01-05T18:46:02.796Z,10.31
2023-01-05T18:48:30.234Z,10.27
2023-01-05T18:50:56.730Z,10.28
2023-01-05T18:53:23.792Z,10.30
2023-01-05T18:55:50.408Z,10.30
2023-01-05T18:58:17.090Z,10.36
2023-01-05T19:00:45.479Z,10.37
2023-01-05T19:03:12.041Z,10.35
2023-01-05T19:05:42.844Z,10.39
2023-01-05T19:08:11.146Z,10.34
2023-01-05T19:10:38.066Z,10.31
2023-01-05T19:13:04.985Z,10.37
2023-01-05T19:15:36.675Z,10.29
2023-01-05T19:18:03.465Z,10.32
2023-01-05T19:20:31.734Z,10.36
2023-01-05T19:22:59.849Z,10.35
2023-01-05T19:25:26.453Z,10.36
2023-01-05T19:27:52.995Z,10.34
2023-01-05T19:30:20.573Z,10.37
2023-01-05T19:32:47.116Z,10.38
2023-01-05T19:35:15.015Z,10.40
2023-01-05T19:37:42.538Z,10.41
2023-01-05T19:40:10.251Z,10.45
2023-01-05T19:42:37.173Z,10.45
2023-01-05T19:45:04.132Z,10.43
2023-01-05T19:47:31.026Z,10.43
2023-01-05T19:49:57.543Z,10.42
2023-01-05T19:52:29.555Z,10.40
2023-01-05T19:54:56.540Z,10.42
2023-01-05T19:57:23.154Z,10.42
2023-01-05T19:59:51.308Z,10.44
2023-01-05T20:02:18.095Z,10.48
2023-01-05T20:04:46.041Z,10.48
2023-01-05T20:07:13.037Z,10.48
2023-01-05T20:09:39.649Z,10.48
2023-01-05T20:12:14.322Z,10.44
2023-01-05T20:14:42.552Z,10.45
2023-01-05T20:17:10.978Z,10.46
2023-01-05T20:19:40.319Z,10.46
2023-01-05T20:22:11.941Z,10.48
2023-01-05T20:24:38.466Z,10.48
2023-01-05T20:27:12.991Z,10.48
2023-01-05T20:29:40.615Z,10.48
2023-01-05T20:32:14.250Z,10.49
2023-01-05T20:34:42.952Z,10.51
2023-01-05T20:37:10.945Z,10.52
2023-01-05T20:39:39.107Z,10.50
2023-01-05T20:42:06.007Z,10.48
2023-01-05T20:44:35.491Z,10.49
2023-01-05T20:47:03.742Z,10.51
2023-01-05T20:49:30.359Z,10.51
2023-01-05T20:51:57.301Z,10.51
2023-01-05T20:54:24.387Z,10.55
2023-01-05T20:56:51.046Z,10.54
2023-01-05T20:59:20.458Z,10.55
2023-01-05T21:01:47.268Z,10.54
2023-01-05T21:04:13.966Z,10.54
2023-01-05T21:06:41.799Z,10.52
2023-01-05T21:09:08.751Z,10.54
2023-01-05T21:11:36.477Z,10.54
2023-01-05T21:14:06.204Z,10.55
2023-01-05T21:16:35.736Z,10.53
2023-01-05T21:19:02.715Z,10.52
2023-01-05T21:21:30.514Z,10.53
2023-01-05T21:23:57.247Z,10.54
2023-01-05T21:26:24.584Z,10.56
2023-01-05T21:28:53.163Z,10.56
2023-01-05T21:31:25.028Z,10.56
2023-01-05T21:33:52.206Z,10.55
2023-01-05T21:36:24.821Z,10.57
2023-01-05T21:39:03.649Z,10.59
2023-01-05T21:41:53.545Z,10.59
2023-01-05T21:44:20.711Z,10.60
2023-01-05T21:46:48.396Z,10.63
2023-01-05T21:49:15.933Z,10.60
2023-01-05T21:52:01.283Z,10.64
2023-01-05T21:54:46.785Z,10.63
2023-01-05T21:57:13.692Z,10.68
2023-01-05T21:59:40.832Z,10.69
2023-01-05T22:02:07.496Z,10.71
2023-01-05T22:04:34.171Z,10.75
2023-01-05T22:07:00.727Z,10.76
2023-01-05T22:09:27.398Z,10.76
2023-01-05T22:11:53.932Z,10.67
2023-01-05T22:14:20.423Z,10.72
2023-01-05T22:16:47.013Z,10.72
2023-01-05T22:19:13.516Z,10.68
2023-01-05T22:21:42.813Z,10.66
2023-01-05T22:24:12.197Z,10.63
2023-01-05T22:26:38.737Z,10.66
2023-01-05T22:29:05.705Z,10.64
2023-01-05T22:31:32.802Z,10.62
2023-01-05T22:34:00.625Z,10.66
2023-01-05T22:36:28.771Z,10.67
2023-01-05T22:38:55.960Z,10.68
2023-01-05T22:41:25.805Z,10.68
2023-01-05T22:43:52.874Z,10.71
2023-01-05T22:46:22.870Z,10.70
2023-01-05T22:48:51.614Z,10.71
2023-01-05T22:51:24.659Z,10.75
2023-01-05T22:53:51.883Z,10.76
2023-01-05T22:56:20.056Z,10.78
2023-01-05T22:58:47.121Z,10.79
2023-01-05T23:01:31.630Z,10.81
2023-01-05T23:04:00.399Z,10.80
2023-01-05T23:06:27.354Z,10.78
2023-01-05T23:08:55.780Z,10.80
2023-01-05T23:11:28.550Z,10.83
2023-01-05T23:13:56.932Z,10.83
2023-01-05T23:16:25.369Z,10.84
2023-01-05T23:18:53.388Z,10.84
2023-01-05T23:21:22.278Z,10.86
2023-01-05T23:23:51.583Z,10.85
2023-01-05T23:26:18.133Z,10.84
2023-01-05T23:28:45.699Z,10.82
2023-01-05T23:31:16.481Z,10.82
2023-01-05T23:33:44.041Z,10.82
2023-01-05T23:36:12.715Z,10.81
2023-01-05T23:38:40.023Z,10.82
2023-01-05T23:41:08.482Z,10.83
2023-01-05T23:43:38.076Z,10.79
2023-01-05T23:46:10.594Z,10.81
2023-01-05T23:48:38.581Z,10.82
2023-01-05T23:51:07.790Z,10.83
2023-01-05T23:53:34.433Z,10.82
2023-01-05T23:56:25.623Z,10.85
2023-01-05T23:59:00.176Z,10.82
